createdAt,value
2022-12-01T00:02:52.020Z,4.80
2022-12-01T00:05:59.291Z,6.00
2022-12-01T00:09:20.597Z,5.60
2022-12-01T00:12:23.240Z,5.65
2022-12-01T00:15:34.503Z,5.50
2022-12-01T00:18:37.268Z,5.95
2022-12-01T00:21:39.564Z,5.10
2022-12-01T00:24:42.180Z,4.93
2022-12-01T00:27:47.877Z,5.10
2022-12-01T00:30:50.508Z,5.50
2022-12-01T00:33:52.816Z,5.32
2022-12-01T00:36:56.134Z,5.53
2022-12-01T00:39:59.007Z,5.80
2022-12-01T00:43:02.110Z,4.72
2022-12-01T00:46:04.571Z,4.90
2022-12-01T00:49:07.348Z,5.40
2022-12-01T00:52:09.639Z,4.80
2022-12-01T00:55:12.184Z,5.40
2022-12-01T00:58:14.450Z,5.50
2022-12-01T01:01:17.124Z,5.03
2022-12-01T01:04:19.658Z,5.23
2022-12-01T01:07:22.874Z,5.40
2022-12-01T01:10:25.292Z,5.20
2022-12-01T01:13:27.975Z,6.62
2022-12-01T01:16:30.375Z,6.23
2022-12-01T01:19:33.039Z,4.72
2022-12-01T01:22:35.445Z,5.03
2022-12-01T01:25:37.989Z,5.60
2022-12-01T01:28:41.638Z,5.30
2022-12-01T01:31:44.292Z,5.12
2022-12-01T01:34:46.641Z,4.70
2022-12-01T01:37:50.801Z,4.82
2022-12-01T01:40:53.115Z,5.50
2022-12-01T01:44:00.583Z,5.03
2022-12-01T01:47:02.852Z,5.35
2022-12-01T01:50:09.136Z,4.60
2022-12-01T01:53:12.983Z,4.97
2022-12-01T01:56:15.617Z,5.22
2022-12-01T01:59:22.675Z,5.70
2022-12-01T02:02:25.655Z,5.53
2022-12-01T02:05:31.039Z,5.17
2022-12-01T02:08:34.664Z,5.22
2022-12-01T02:11:49.096Z,5.10
2022-12-01T02:15:01.148Z,5.05
2022-12-01T02:18:09.520Z,4.73
2022-12-01T02:21:14.335Z,5.30
2022-12-01T02:24:46.069Z,5.47
2022-12-01T02:28:10.008Z,4.93
2022-12-01T02:31:15.557Z,5.35
2022-12-01T02:34:44.772Z,5.28
2022-12-01T02:38:11.703Z,5.60
2022-12-01T02:41:22.051Z,5.10
2022-12-01T02:44:32.436Z,4.87
2022-12-01T02:47:34.745Z,4.68
2022-12-01T02:50:37.283Z,5.40
2022-12-01T02:53:39.588Z,5.37
2022-12-01T02:56:44.231Z,5.20
2022-12-01T02:59:48.673Z,5.18
2022-12-01T03:03:22.788Z,5.28
2022-12-01T03:06:37.596Z,9.02
2022-12-01T03:10:16.312Z,6.78
2022-12-01T03:13:33.567Z,10.05
2022-12-01T03:16:52.177Z,8.27
2022-12-01T03:19:57.880Z,8.60
2022-12-01T03:23:04.789Z,11.52
2022-12-01T03:26:08.304Z,21.30
2022-12-01T03:29:18.312Z,26.53
2022-12-01T03:32:25.509Z,32.22
2022-12-01T03:35:31.279Z,30.70
2022-12-01T03:38:36.090Z,36.70
2022-12-01T03:41:42.488Z,33.10
2022-12-01T03:44:49.728Z,21.23
2022-12-01T03:47:52.579Z,26.70
2022-12-01T03:51:15.075Z,26.30
2022-12-01T03:54:54.183Z,25.15
2022-12-01T03:57:57.056Z,23.73
2022-12-01T04:01:01.856Z,20.50
2022-12-01T04:04:09.131Z,18.30
2022-12-01T04:07:13.513Z,20.35
2022-12-01T04:10:16.172Z,17.92
2022-12-01T04:13:25.536Z,20.27
2022-12-01T04:16:30.536Z,21.58
2022-12-01T04:19:32.948Z,20.35
2022-12-01T04:22:35.580Z,16.73
2022-12-01T04:25:37.895Z,19.52
2022-12-01T04:28:40.453Z,16.80
2022-12-01T04:31:42.975Z,17.50
2022-12-01T04:34:45.702Z,17.37
2022-12-01T04:37:48.126Z,17.83
2022-12-01T04:40:50.711Z,19.03
2022-12-01T04:43:54.629Z,18.58
2022-12-01T04:46:57.219Z,15.75
2022-12-01T04:50:00.450Z,14.30
2022-12-01T04:53:03.815Z,15.40
2022-12-01T04:56:06.423Z,14.15
2022-12-01T04:59:09.039Z,15.07
2022-12-01T05:02:11.396Z,15.98
2022-12-01T05:05:14.204Z,14.15
2022-12-01T05:08:16.519Z,15.00
2022-12-01T05:11:19.124Z,14.02
2022-12-01T05:14:21.514Z,14.23
2022-12-01T05:17:24.047Z,13.50
2022-12-01T05:20:45.040Z,14.45
2022-12-01T05:23:47.683Z,14.75
2022-12-01T05:26:50.055Z,13.17
2022-12-01T05:29:52.729Z,11.88
2022-12-01T05:32:55.103Z,13.43
2022-12-01T05:35:57.711Z,12.40
2022-12-01T05:39:00.465Z,15.17
2022-12-01T05:42:03.075Z,13.65
2022-12-01T05:45:06.122Z,12.65
2022-12-01T05:48:08.775Z,12.88
2022-12-01T05:51:11.934Z,12.10
2022-12-01T05:54:16.264Z,11.40
2022-12-01T05:57:18.548Z,9.85
2022-12-01T06:00:21.248Z,12.82
2022-12-01T06:03:23.789Z,11.43
2022-12-01T06:06:26.252Z,11.27
2022-12-01T06:09:28.836Z,10.77
2022-12-01T06:12:31.154Z,12.32
2022-12-01T06:15:33.697Z,11.35
2022-12-01T06:18:37.129Z,10.45
2022-12-01T06:21:39.751Z,9.65
2022-12-01T06:24:42.066Z,7.37
2022-12-01T06:27:44.587Z,8.57
2022-12-01T06:30:46.973Z,12.05
2022-12-01T06:33:49.482Z,10.50
2022-12-01T06:36:51.808Z,9.73
2022-12-01T06:39:54.316Z,11.73
2022-12-01T06:42:59.676Z,11.52
2022-12-01T06:46:05.979Z,9.55
2022-12-01T06:49:12.065Z,9.80
2022-12-01T06:52:14.668Z,10.93
2022-12-01T06:55:16.984Z,9.70
2022-12-01T06:58:19.572Z,8.30
2022-12-01T07:01:22.032Z,8.20
2022-12-01T07:04:25.072Z,9.20
2022-12-01T07:07:27.513Z,9.77
2022-12-01T07:10:30.100Z,10.13
2022-12-01T07:13:33.913Z,11.63
2022-12-01T07:16:36.832Z,12.05
2022-12-01T07:19:39.627Z,12.73
2022-12-01T07:22:43.037Z,11.02
2022-12-01T07:25:45.544Z,12.17
2022-12-01T07:28:49.972Z,12.95
2022-12-01T07:31:52.331Z,13.95
2022-12-01T07:34:54.961Z,12.88
2022-12-01T07:37:57.356Z,18.87
